createdAt,value
2018-05-18T00:00:14.746Z,86.93
2018-05-18T00:02:42.402Z,86.67
2018-05-18T00:05:09.947Z,87.02
2018-05-18T00:07:37.453Z,86.78
2018-05-18T00:10:05.163Z,86.96
2018-05-18T00:12:32.740Z,87.00
2018-05-18T00:15:00.304Z,87.01
2018-05-18T00:17:27.810Z,86.69
2018-05-18T00:19:55.346Z,86.50
2018-05-18T00:22:22.859Z,86.91
2018-05-18T00:24:50.383Z,86.60
2018-05-18T00:27:17.894Z,86.09
2018-05-18T00:29:45.428Z,86.14
2018-05-18T00:32:12.930Z,85.83
2018-05-18T00:34:40.502Z,86.02
2018-05-18T00:37:08.038Z,86.08
2018-05-18T00:39:35.579Z,85.84
2018-05-18T00:42:03.099Z,85.30
2018-05-18T00:44:30.631Z,85.16
2018-05-18T00:46:58.419Z,85.07
2018-05-18T00:49:26.035Z,84.57
2018-05-18T00:51:53.649Z,84.98
2018-05-18T00:54:21.178Z,84.87
2018-05-18T00:56:48.688Z,84.97
2018-05-18T00:59:16.236Z,84.52
2018-05-18T01:01:43.803Z,84.57
2018-05-18T01:04:11.349Z,84.93
2018-05-18T01:06:39.136Z,84.51
2018-05-18T01:09:06.659Z,84.25
2018-05-18T01:11:34.183Z,84.52
2018-05-18T01:14:01.721Z,84.13
2018-05-18T01:16:29.286Z,84.43
2018-05-18T01:18:56.811Z,84.60
2018-05-18T01:21:24.356Z,84.98
2018-05-18T01:23:51.863Z,84.46
2018-05-18T01:26:19.443Z,84.32
2018-05-18T01:28:47.038Z,84.57
2018-05-18T01:31:14.594Z,84.31
2018-05-18T01:33:42.132Z,84.98
2018-05-18T01:36:09.652Z,84.70
2018-05-18T01:38:37.156Z,84.62
2018-05-18T01:41:04.675Z,84.46
2018-05-18T01:43:32.220Z,84.54
2018-05-18T01:45:59.747Z,84.19
2018-05-18T01:48:27.287Z,84.10
2018-05-18T01:50:54.830Z,84.39
2018-05-18T01:53:22.331Z,84.58
2018-05-18T01:55:49.885Z,84.30
2018-05-18T01:58:17.410Z,83.98
2018-05-18T02:00:44.956Z,84.14
2018-05-18T02:03:12.463Z,84.07
2018-05-18T02:05:39.998Z,84.25
2018-05-18T02:08:07.510Z,84.08
2018-05-18T02:10:35.090Z,84.09
2018-05-18T02:13:02.638Z,84.25
2018-05-18T02:15:30.197Z,83.52
2018-05-18T02:17:57.692Z,84.07
2018-05-18T02:20:25.207Z,83.77
2018-05-18T02:22:52.716Z,83.92
2018-05-18T02:25:20.314Z,84.07
2018-05-18T02:27:47.858Z,83.50
2018-05-18T02:30:15.406Z,83.65
2018-05-18T02:32:42.994Z,84.35
2018-05-18T02:35:10.539Z,84.40
2018-05-18T02:37:38.087Z,84.06
2018-05-18T02:40:05.670Z,83.74
2018-05-18T02:42:33.200Z,84.19
2018-05-18T02:45:00.775Z,83.58
2018-05-18T02:47:28.602Z,82.75
2018-05-18T02:49:56.102Z,82.98
2018-05-18T02:52:23.712Z,82.89
2018-05-18T02:54:51.206Z,83.04
2018-05-18T02:57:19.691Z,83.23
2018-05-18T02:59:47.234Z,83.13
2018-05-18T03:02:14.730Z,82.84
2018-05-18T03:04:42.250Z,82.51
2018-05-18T03:07:09.779Z,82.16
2018-05-18T03:09:37.312Z,82.35
2018-05-18T03:12:04.876Z,82.26
2018-05-18T03:14:32.434Z,82.33
2018-05-18T03:16:59.959Z,82.52
2018-05-18T03:19:27.535Z,82.38
2018-05-18T03:21:55.090Z,82.38
2018-05-18T03:24:22.670Z,82.24
2018-05-18T03:26:50.227Z,80.96
2018-05-18T03:29:17.747Z,80.96
2018-05-18T03:31:45.262Z,81.32
2018-05-18T03:34:12.756Z,81.04
2018-05-18T03:36:40.285Z,81.05
2018-05-18T03:39:07.806Z,80.75
2018-05-18T03:41:35.398Z,80.60
2018-05-18T03:44:02.969Z,80.40
2018-05-18T03:46:30.506Z,80.36
2018-05-18T03:48:58.052Z,80.36
2018-05-18T03:51:25.602Z,80.43
2018-05-18T04:37:33.706Z,79.81
2018-05-18T04:40:01.198Z,79.66
2018-05-18T04:42:28.707Z,80.07
2018-05-18T04:44:56.186Z,79.65
2018-05-18T04:47:23.684Z,80.10
2018-05-18T04:49:51.141Z,79.44
2018-05-18T04:52:18.644Z,79.75
2018-05-18T04:54:46.127Z,80.03
2018-05-18T04:57:13.590Z,79.97
2018-05-18T04:59:41.074Z,80.00
2018-05-18T05:02:08.538Z,79.92
2018-05-18T05:04:36.018Z,80.19
2018-05-18T05:07:03.490Z,79.42
2018-05-18T05:09:30.973Z,79.43
2018-05-18T05:11:58.464Z,78.55
2018-05-18T05:14:25.963Z,79.07
2018-05-18T05:16:53.442Z,79.26
2018-05-18T05:19:20.949Z,79.10
2018-05-18T05:21:48.409Z,78.94
2018-05-18T05:24:15.907Z,78.83
2018-05-18T05:26:43.398Z,78.16
2018-05-18T05:29:10.886Z,77.90
2018-05-18T05:31:38.341Z,77.19
2018-05-18T05:34:05.834Z,77.16
2018-05-18T05:36:33.422Z,76.38
2018-05-18T05:39:00.843Z,76.27
2018-05-18T05:41:28.303Z,75.64
2018-05-18T05:43:55.785Z,75.29
2018-05-18T05:46:23.245Z,75.11
2018-05-18T05:48:50.734Z,75.55
2018-05-18T05:51:18.198Z,75.73
2018-05-18T05:53:45.685Z,75.46
2018-05-18T05:56:13.174Z,74.49
2018-05-18T05:58:40.674Z,74.61
2018-05-18T06:01:08.143Z,75.40
2018-05-18T06:03:35.630Z,74.79
2018-05-18T06:06:03.170Z,74.64
2018-05-18T06:08:33.412Z,75.04
2018-05-18T06:11:00.886Z,74.50
2018-05-18T06:22:06.760Z,74.42
2018-05-18T06:24:34.994Z,74.30
2018-05-18T06:27:02.480Z,72.92
2018-05-18T06:29:29.962Z,72.55
2018-05-18T06:31:57.430Z,72.26
2018-05-18T06:34:24.933Z,72.04
2018-05-18T06:36:52.403Z,70.70
2018-05-18T06:39:19.893Z,72.21
2018-05-18T06:41:47.362Z,71.14
2018-05-18T06:44:14.852Z,71.41
2018-05-18T06:46:42.346Z,71.76
2018-05-18T06:49:09.847Z,69.34
2018-05-18T06:51:37.670Z,70.03
2018-05-18T06:54:05.146Z,70.46
2018-05-18T06:56:32.638Z,68.11
2018-05-18T06:59:00.110Z,68.50
2018-05-18T07:01:27.606Z,69.61
2018-05-18T07:03:55.091Z,69.26
2018-05-18T07:06:22.588Z,70.12
2018-05-18T07:08:50.059Z,70.07
2018-05-18T07:11:17.577Z,68.66
2018-05-18T07:13:45.052Z,68.79
2018-05-18T07:16:12.546Z,66.05
2018-05-18T07:18:40.027Z,67.00
2018-05-18T07:21:07.517Z,67.64
2018-05-18T07:23:35.026Z,67.42
2018-05-18T07:26:02.527Z,68.04
2018-05-18T07:28:29.999Z,68.37
2018-05-18T07:30:57.507Z,66.83
2018-05-18T07:33:24.994Z,65.79
2018-05-18T07:35:52.503Z,65.05
2018-05-18T07:38:19.979Z,64.10
2018-05-18T07:40:47.479Z,64.01
2018-05-18T07:43:14.967Z,62.98
2018-05-18T07:45:43.399Z,65.31
2018-05-18T07:48:10.871Z,64.93
2018-05-18T07:50:38.474Z,63.87
2018-05-18T07:53:05.940Z,64.18
2018-05-18T07:55:33.444Z,66.48
2018-05-18T07:58:00.923Z,65.53
2018-05-18T08:00:28.414Z,64.02
2018-05-18T08:02:55.905Z,65.55
2018-05-18T08:05:23.393Z,64.50
2018-05-18T08:07:50.913Z,62.97
2018-05-18T08:10:18.402Z,65.09
2018-05-18T08:12:45.892Z,65.40
2018-05-18T08:15:13.449Z,66.48
2018-05-18T08:17:40.886Z,64.86
2018-05-18T08:20:08.366Z,64.19
2018-05-18T08:22:35.876Z,66.13
2018-05-18T08:25:03.349Z,65.35
2018-05-18T08:27:31.874Z,63.94
2018-05-18T08:29:59.341Z,61.06
2018-05-18T08:32:26.853Z,64.84
2018-05-18T08:34:54.557Z,63.97
2018-05-18T08:37:22.118Z,63.36
2018-05-18T08:39:49.594Z,62.33
2018-05-18T08:42:17.082Z,62.24
2018-05-18T08:44:44.563Z,62.40
2018-05-18T08:47:12.132Z,63.21
2018-05-18T08:49:39.606Z,63.42
2018-05-18T08:52:07.106Z,61.12
2018-05-18T08:54:34.581Z,60.81
2018-05-18T08:57:02.085Z,59.20
2018-05-18T08:59:29.549Z,63.45
2018-05-18T09:01:57.054Z,64.64
2018-05-18T09:04:24.573Z,61.94
2018-05-18T09:06:52.066Z,61.37
2018-05-18T09:09:19.558Z,58.70
2018-05-18T09:11:47.058Z,62.50
2018-05-18T09:14:14.534Z,62.78
2018-05-18T09:16:42.010Z,62.93
2018-05-18T09:19:09.508Z,62.55
2018-05-18T09:21:36.986Z,63.66
2018-05-18T09:24:04.478Z,62.30
2018-05-18T09:26:32.035Z,62.02
2018-05-18T09:28:59.475Z,60.29
2018-05-18T09:31:26.947Z,58.00
2018-05-18T09:33:54.469Z,57.54
2018-05-18T09:36:22.010Z,58.51
2018-05-18T09:38:49.550Z,57.42
2018-05-18T09:41:17.036Z,59.91
2018-05-18T09:43:44.546Z,58.48
2018-05-18T09:46:12.034Z,59.54
2018-05-18T09:48:39.538Z,58.99
2018-05-18T09:51:07.012Z,59.60
2018-05-18T09:53:34.514Z,60.24
2018-05-18T09:56:01.985Z,62.70
2018-05-18T09:58:29.494Z,61.40
2018-05-18T10:00:56.968Z,59.33
2018-05-18T10:03:24.462Z,60.70
2018-05-18T10:05:51.938Z,60.02
2018-05-18T10:08:19.427Z,60.30
2018-05-18T10:13:21.037Z,58.41
2018-05-18T10:15:48.597Z,60.24
2018-05-18T10:18:16.020Z,58.06
2018-05-18T10:20:43.495Z,58.23
2018-05-18T10:23:10.993Z,57.93
2018-05-18T10:25:38.473Z,58.59
2018-05-18T10:28:05.961Z,57.86
2018-05-18T10:30:33.431Z,58.17
2018-05-18T10:33:00.921Z,58.99
2018-05-18T10:35:28.386Z,58.83
2018-05-18T10:37:55.847Z,59.87
2018-05-18T10:40:23.342Z,58.31
2018-05-18T10:42:50.883Z,59.93
2018-05-18T10:45:18.376Z,58.07
2018-05-18T10:47:45.858Z,58.94
2018-05-18T10:50:13.350Z,58.94
2018-05-18T10:52:40.839Z,58.78
2018-05-18T10:55:08.341Z,59.58
2018-05-18T10:57:35.818Z,57.62
2018-05-18T11:00:03.334Z,56.85
2018-05-18T11:02:30.798Z,57.70
2018-05-18T11:04:58.291Z,55.99
2018-05-18T11:07:25.754Z,55.80
2018-05-18T11:09:53.237Z,57.27
2018-05-18T11:12:20.709Z,56.00
2018-05-18T11:14:48.203Z,55.36
2018-05-18T11:17:15.682Z,53.99
2018-05-18T11:19:43.166Z,54.98
2018-05-18T11:22:10.637Z,57.91
2018-05-18T11:24:38.133Z,56.48
2018-05-18T11:27:05.611Z,56.37
2018-05-18T11:29:33.110Z,55.67
2018-05-18T11:32:00.585Z,55.48
2018-05-18T11:34:28.073Z,56.69
2018-05-18T11:36:55.549Z,53.95
2018-05-18T11:39:23.043Z,57.26
2018-05-18T11:41:50.515Z,55.64
2018-05-18T11:44:18.007Z,55.73
2018-05-18T11:46:45.487Z,54.91
2018-05-18T11:49:12.983Z,53.81
2018-05-18T11:51:40.447Z,55.32
2018-05-18T11:54:07.953Z,55.18
2018-05-18T11:56:35.422Z,55.54
2018-05-18T11:59:02.894Z,54.52
2018-05-18T12:01:30.387Z,53.26
2018-05-18T12:03:57.855Z,54.21
2018-05-18T12:06:26.325Z,53.89
2018-05-18T12:08:53.797Z,54.66
2018-05-18T12:11:21.285Z,53.41
2018-05-18T12:13:48.754Z,52.38
2018-05-18T12:16:16.247Z,51.26
2018-05-18T12:18:43.717Z,54.06
2018-05-18T12:21:11.224Z,52.63
2018-05-18T12:23:38.698Z,54.21
2018-05-18T12:26:06.332Z,52.28
2018-05-18T12:28:33.811Z,51.12
2018-05-18T12:31:01.343Z,50.63
2018-05-18T12:33:28.807Z,50.96
2018-05-18T12:35:56.295Z,51.66
2018-05-18T12:38:23.777Z,52.02
2018-05-18T12:40:52.290Z,52.22
2018-05-18T12:43:19.755Z,49.85
2018-05-18T12:45:47.248Z,51.44
2018-05-18T12:48:14.721Z,51.70
2018-05-18T12:50:42.219Z,49.28
2018-05-18T12:53:09.686Z,48.96
2018-05-18T12:55:37.187Z,49.94
2018-05-18T12:58:04.654Z,50.13
2018-05-18T13:00:32.152Z,49.83
2018-05-18T13:02:59.702Z,50.20
2018-05-18T13:05:27.191Z,49.13
2018-05-18T13:07:54.662Z,48.38
2018-05-18T13:10:22.174Z,46.16
2018-05-18T13:12:49.654Z,44.37
2018-05-18T13:15:17.121Z,47.64
2018-05-18T13:17:44.614Z,44.20
2018-05-18T13:20:12.871Z,43.43
2018-05-18T13:22:40.366Z,42.37
2018-05-18T13:25:07.835Z,46.65
2018-05-18T13:27:35.325Z,44.38
2018-05-18T13:30:02.800Z,44.67
2018-05-18T13:32:30.288Z,40.08
2018-05-18T13:34:57.757Z,40.91
2018-05-18T13:37:25.242Z,39.15
2018-05-18T13:39:52.715Z,42.37
2018-05-18T13:42:20.209Z,39.22
2018-05-18T13:44:47.785Z,37.96
2018-05-18T13:47:15.200Z,42.44
2018-05-18T13:49:42.673Z,39.00
2018-05-18T13:52:10.165Z,40.27
2018-05-18T13:54:37.671Z,43.54
2018-05-18T13:57:05.210Z,40.08
2018-05-18T13:59:32.650Z,41.23
2018-05-18T14:02:00.197Z,43.91
2018-05-18T14:04:27.666Z,41.57
2018-05-18T14:06:55.158Z,38.59
2018-05-18T14:09:22.624Z,38.60
2018-05-18T14:11:50.116Z,41.53
2018-05-18T14:14:17.594Z,39.39
2018-05-18T14:16:45.102Z,35.79
2018-05-18T14:19:12.578Z,39.64
2018-05-18T14:21:40.074Z,42.41
2018-05-18T14:24:07.558Z,40.22
2018-05-18T14:26:35.049Z,37.07
2018-05-18T14:29:02.514Z,38.22
2018-05-18T14:31:30.013Z,40.84
2018-05-18T14:33:57.484Z,38.76
2018-05-18T14:36:24.945Z,39.05
2018-05-18T14:38:52.450Z,41.14
2018-05-18T14:41:19.927Z,38.77
2018-05-18T14:43:47.435Z,39.20
2018-05-18T14:46:14.916Z,37.25
2018-05-18T14:48:42.418Z,37.09
2018-05-18T14:51:09.933Z,37.72
2018-05-18T14:53:37.398Z,38.33
2018-05-18T14:56:04.871Z,39.95
2018-05-18T14:58:32.460Z,39.75
2018-05-18T15:00:59.878Z,37.26
2018-05-18T15:03:27.365Z,39.70
2018-05-18T15:05:54.833Z,39.40
2018-05-18T15:08:22.317Z,39.10
2018-05-18T15:10:49.787Z,38.59
2018-05-18T15:13:17.277Z,41.35
2018-05-18T15:15:44.750Z,39.70
2018-05-18T15:18:12.233Z,42.32
2018-05-18T15:20:39.710Z,41.07
2018-05-18T15:23:07.227Z,42.35
2018-05-18T15:25:34.714Z,41.14
2018-05-18T15:28:02.207Z,41.18
2018-05-18T15:30:29.681Z,39.86
2018-05-18T15:32:57.165Z,41.03
2018-05-18T15:35:24.630Z,41.86
2018-05-18T15:37:52.122Z,39.65
2018-05-18T15:40:19.607Z,39.23
2018-05-18T15:42:47.110Z,38.05
2018-05-18T15:45:14.584Z,42.27
2018-05-18T15:47:42.074Z,41.59
2018-05-18T15:50:09.547Z,42.47
2018-05-18T15:52:37.055Z,41.95
2018-05-18T15:55:04.529Z,42.36
2018-05-18T15:57:32.078Z,41.22
2018-05-18T15:59:59.508Z,40.89
2018-05-18T16:02:26.978Z,41.08
2018-05-18T16:04:54.462Z,39.58
2018-05-18T16:07:21.949Z,39.26
2018-05-18T16:09:49.454Z,40.90
2018-05-18T16:12:16.929Z,40.03
2018-05-18T16:14:44.456Z,40.64
2018-05-18T16:17:11.981Z,42.14
2018-05-18T16:19:39.470Z,39.73
2018-05-18T16:22:06.948Z,42.29
2018-05-18T16:24:34.447Z,40.41
2018-05-18T16:27:01.930Z,40.64
2018-05-18T16:29:29.425Z,39.86
2018-05-18T16:31:56.899Z,42.01
2018-05-18T16:34:24.392Z,43.37
2018-05-18T16:36:51.870Z,43.14
2018-05-18T16:39:19.359Z,44.03
2018-05-18T16:41:46.830Z,44.09
2018-05-18T16:44:14.325Z,42.53
2018-05-18T16:46:41.794Z,39.81
2018-05-18T16:49:09.295Z,41.32
2018-05-18T16:51:36.763Z,42.19
2018-05-18T16:54:04.250Z,44.92
2018-05-18T16:56:31.730Z,45.93
2018-05-18T16:58:59.222Z,44.75
2018-05-18T17:01:27.040Z,45.38
2018-05-18T17:03:54.528Z,45.66
2018-05-18T17:06:21.996Z,47.09
2018-05-18T17:08:49.480Z,48.56
2018-05-18T17:11:16.949Z,48.89
2018-05-18T17:13:44.438Z,48.66
2018-05-18T17:16:11.918Z,48.73
2018-05-18T17:18:39.386Z,47.94
2018-05-18T17:21:06.870Z,49.37
2018-05-18T17:23:34.381Z,48.62
2018-05-18T17:26:01.863Z,48.19
2018-05-18T17:28:29.335Z,48.70
2018-05-18T17:30:56.834Z,49.20
2018-05-18T17:33:24.319Z,49.07
2018-05-18T17:35:51.827Z,49.57
2018-05-18T17:38:19.298Z,50.03
2018-05-18T17:40:46.810Z,50.36
2018-05-18T17:43:14.286Z,49.78
2018-05-18T17:45:41.783Z,50.23
2018-05-18T17:48:09.262Z,51.08
2018-05-18T17:50:36.759Z,52.11
2018-05-18T17:53:04.246Z,52.04
2018-05-18T17:55:31.729Z,51.91
2018-05-18T17:57:59.194Z,50.75
2018-05-18T18:00:26.687Z,51.06
2018-05-18T18:02:54.157Z,51.69
2018-05-18T18:05:21.669Z,51.52
2018-05-18T18:07:49.199Z,49.71
2018-05-18T18:10:16.701Z,49.33
2018-05-18T18:12:44.181Z,51.32
2018-05-18T18:15:11.662Z,50.66
2018-05-18T18:17:39.134Z,49.87
2018-05-18T18:20:07.488Z,51.33
2018-05-18T18:22:34.970Z,51.06
2018-05-18T18:25:02.480Z,52.22
2018-05-18T18:27:29.941Z,51.00
2018-05-18T18:29:57.421Z,50.84
2018-05-18T18:32:24.890Z,50.79
2018-05-18T18:34:52.383Z,51.87
2018-05-18T18:37:19.871Z,52.61
2018-05-18T18:39:47.337Z,52.53
2018-05-18T18:42:14.817Z,53.66
2018-05-18T18:44:42.290Z,53.44
2018-05-18T18:47:09.784Z,54.13
2018-05-18T18:49:37.256Z,54.53
2018-05-18T18:52:04.840Z,53.94
2018-05-18T18:54:32.238Z,55.13
2018-05-18T18:57:00.015Z,55.80
2018-05-18T18:59:27.498Z,56.01
2018-05-18T19:01:54.985Z,56.80
2018-05-18T19:04:22.511Z,57.70
2018-05-18T19:06:50.002Z,57.91
2018-05-18T19:09:17.478Z,58.23
2018-05-18T19:11:44.957Z,58.16
2018-05-18T19:14:12.434Z,58.94
2018-05-18T19:16:39.922Z,59.48
2018-05-18T19:19:07.395Z,59.31
2018-05-18T19:21:34.885Z,61.40
2018-05-18T19:24:02.366Z,60.61
2018-05-18T19:26:29.854Z,61.07
2018-05-18T19:28:57.329Z,61.18
2018-05-18T19:31:24.860Z,61.19
2018-05-18T19:33:52.344Z,61.37
2018-05-18T19:36:19.839Z,61.18
2018-05-18T19:38:47.570Z,61.86
2018-05-18T19:41:15.088Z,62.13
2018-05-18T19:43:42.619Z,62.67
2018-05-18T19:46:10.058Z,62.94
2018-05-18T19:48:37.533Z,63.93
2018-05-18T19:51:05.030Z,62.57
2018-05-18T19:53:32.514Z,63.33
2018-05-18T19:56:00.006Z,63.36
2018-05-18T19:58:27.486Z,65.76
2018-05-18T20:00:54.953Z,66.37
2018-05-18T20:03:22.434Z,66.80
2018-05-18T20:05:50.632Z,67.40
2018-05-18T20:08:18.128Z,69.44
2018-05-18T20:10:45.601Z,69.49
2018-05-18T20:13:13.134Z,68.72
2018-05-18T20:15:40.840Z,67.71
2018-05-18T20:18:08.326Z,67.67
2018-05-18T20:20:35.794Z,68.29
2018-05-18T20:23:03.281Z,69.45
2018-05-18T20:25:30.753Z,69.68
2018-05-18T20:27:58.244Z,69.21
2018-05-18T20:30:25.721Z,70.21
2018-05-18T20:32:53.211Z,70.35
2018-05-18T20:35:20.692Z,71.38
2018-05-18T20:37:48.182Z,71.74
2018-05-18T20:40:15.646Z,71.77
2018-05-18T20:42:43.139Z,71.85
2018-05-18T20:45:10.639Z,71.19
2018-05-18T20:47:38.106Z,71.46
2018-05-18T20:50:05.574Z,71.04
2018-05-18T20:52:33.062Z,70.82
2018-05-18T20:55:00.528Z,71.02
2018-05-18T20:57:28.016Z,69.64
2018-05-18T20:59:55.486Z,69.32
2018-05-18T21:02:22.986Z,67.86
2018-05-18T21:04:50.455Z,68.67
2018-05-18T21:07:17.944Z,67.82
2018-05-18T21:09:45.439Z,67.73
2018-05-18T21:12:12.905Z,68.61
2018-05-18T21:14:40.391Z,67.85
2018-05-18T21:17:07.882Z,67.94
2018-05-18T21:19:35.370Z,68.39
2018-05-18T21:22:02.845Z,69.10
2018-05-18T21:24:30.336Z,69.86
2018-05-18T21:26:57.800Z,69.29
2018-05-18T21:29:25.337Z,69.36
2018-05-18T21:31:52.809Z,69.67
2018-05-18T21:34:20.297Z,70.95
2018-05-18T21:36:47.759Z,70.46
2018-05-18T21:39:15.259Z,70.95
2018-05-18T21:41:42.735Z,71.79
2018-05-18T21:44:10.206Z,72.10
2018-05-18T21:46:37.698Z,72.22
2018-05-18T21:49:05.170Z,72.43
2018-05-18T21:51:32.658Z,71.84
2018-05-18T21:54:00.485Z,71.42
2018-05-18T21:56:27.971Z,71.55
2018-05-18T21:58:55.438Z,73.11
2018-05-18T22:01:22.933Z,71.59
2018-05-18T22:03:50.405Z,71.56
2018-05-18T22:06:17.890Z,72.75
2018-05-18T22:08:45.371Z,72.67
2018-05-18T22:11:12.857Z,73.13
2018-05-18T22:13:40.322Z,73.53
2018-05-18T22:16:07.847Z,74.49
2018-05-18T22:18:35.355Z,75.60
2018-05-18T22:21:02.841Z,76.02
2018-05-18T22:23:30.310Z,75.47
2018-05-18T22:25:57.809Z,75.01
2018-05-18T22:28:25.284Z,75.49
2018-05-18T22:30:52.750Z,76.01
2018-05-18T22:33:20.236Z,76.17
2018-05-18T22:35:47.710Z,77.36
